sensor_id;sensor_type;location;lat;lon;timestamp;P1;durP1;ratioP1;P2;durP2;ratioP2
37701;SDS011;23548;51.196;6.838;2022-07-22T00:01:57;15.70;;;9.95;;
37701;SDS011;23548;51.196;6.838;2022-07-22T00:04:23;16.75;;;10.45;;
37701;SDS011;23548;51.196;6.838;2022-07-22T00:06:49;15.27;;;9.45;;
37701;SDS011;23548;51.196;6.838;2022-07-22T00:09:14;20.15;;;10.23;;
37701;SDS011;23548;51.196;6.838;2022-07-22T00:11:40;16.00;;;10.65;;
37701;SDS011;23548;51.196;6.838;2022-07-22T00:14:06;15.70;;;10.30;;
37701;SDS011;23548;51.196;6.838;2022-07-22T00:16:32;15.82;;;10.43;;
37701;SDS011;23548;51.196;6.838;2022-07-22T00:18:58;17.52;;;10.27;;
37701;SDS011;23548;51.196;6.838;2022-07-22T00:21:23;14.10;;;9.50;;
37701;SDS011;23548;51.196;6.838;2022-07-22T00:23:49;17.92;;;9.50;;
37701;SDS011;23548;51.196;6.838;2022-07-22T00:26:15;14.75;;;8.98;;
37701;SDS011;23548;51.196;6.838;2022-07-22T00:28:41;17.88;;;9.40;;
37701;SDS011;23548;51.196;6.838;2022-07-22T00:31:07;17.38;;;10.43;;
37701;SDS011;23548;51.196;6.838;2022-07-22T00:33:32;14.32;;;9.85;;
37701;SDS011;23548;51.196;6.838;2022-07-22T00:35:58;18.00;;;10.05;;
37701;SDS011;23548;51.196;6.838;2022-07-22T00:38:24;18.05;;;9.32;;
37701;SDS011;23548;51.196;6.838;2022-07-22T00:40:50;17.42;;;9.10;;
37701;SDS011;23548;51.196;6.838;2022-07-22T00:43:15;17.15;;;8.68;;
37701;SDS011;23548;51.196;6.838;2022-07-22T00:45:41;17.23;;;9.20;;
37701;SDS011;23548;51.196;6.838;2022-07-22T00:48:07;18.13;;;8.45;;
37701;SDS011;23548;51.196;6.838;2022-07-22T00:50:32;15.65;;;9.75;;
37701;SDS011;23548;51.196;6.838;2022-07-22T00:52:59;17.15;;;9.55;;
37701;SDS011;23548;51.196;6.838;2022-07-22T00:55:25;20.75;;;10.63;;
37701;SDS011;23548;51.196;6.838;2022-07-22T00:57:51;16.10;;;10.77;;
37701;SDS011;23548;51.196;6.838;2022-07-22T01:00:18;17.08;;;10.98;;
37701;SDS011;23548;51.196;6.838;2022-07-22T01:02:46;16.65;;;10.73;;
37701;SDS011;23548;51.196;6.838;2022-07-22T01:05:12;16.10;;;10.77;;
37701;SDS011;23548;51.196;6.838;2022-07-22T01:07:38;23.48;;;11.73;;
37701;SDS011;23548;51.196;6.838;2022-07-22T01:10:04;16.35;;;11.00;;
37701;SDS011;23548;51.196;6.838;2022-07-22T01:12:31;21.15;;;12.25;;
37701;SDS011;23548;51.196;6.838;2022-07-22T01:14:57;21.48;;;12.65;;
37701;SDS011;23548;51.196;6.838;2022-07-22T01:17:23;22.73;;;13.02;;
37701;SDS011;23548;51.196;6.838;2022-07-22T01:19:49;24.17;;;12.65;;
37701;SDS011;23548;51.196;6.838;2022-07-22T01:22:15;21.52;;;12.73;;
37701;SDS011;23548;51.196;6.838;2022-07-22T01:24:41;22.77;;;12.75;;
37701;SDS011;23548;51.196;6.838;2022-07-22T01:27:07;21.48;;;12.65;;
37701;SDS011;23548;51.196;6.838;2022-07-22T01:29:33;22.45;;;13.95;;
37701;SDS011;23548;51.196;6.838;2022-07-22T01:31:59;21.40;;;12.85;;
37701;SDS011;23548;51.196;6.838;2022-07-22T01:34:25;20.95;;;13.57;;
37701;SDS011;23548;51.196;6.838;2022-07-22T01:36:50;23.08;;;14.02;;
37701;SDS011;23548;51.196;6.838;2022-07-22T01:39:16;19.67;;;13.27;;
37701;SDS011;23548;51.196;6.838;2022-07-22T01:41:42;21.52;;;13.07;;
37701;SDS011;23548;51.196;6.838;2022-07-22T01:47:20;24.77;;;13.82;;
37701;SDS011;23548;51.196;6.838;2022-07-22T01:49:46;23.00;;;13.85;;
37701;SDS011;23548;51.196;6.838;2022-07-22T01:52:12;33.05;;;15.15;;
37701;SDS011;23548;51.196;6.838;2022-07-22T01:54:37;20.60;;;14.18;;
37701;SDS011;23548;51.196;6.838;2022-07-22T01:57:03;22.52;;;14.23;;
37701;SDS011;23548;51.196;6.838;2022-07-22T01:59:29;24.52;;;14.82;;
37701;SDS011;23548;51.196;6.838;2022-07-22T02:01:55;22.25;;;14.50;;
37701;SDS011;23548;51.196;6.838;2022-07-22T02:04:21;22.10;;;13.73;;
37701;SDS011;23548;51.196;6.838;2022-07-22T02:06:46;27.40;;;14.57;;
37701;SDS011;23548;51.196;6.838;2022-07-22T02:09:13;22.15;;;14.43;;
37701;SDS011;23548;51.196;6.838;2022-07-22T02:11:39;21.20;;;13.45;;
37701;SDS011;23548;51.196;6.838;2022-07-22T02:14:05;29.85;;;14.45;;
37701;SDS011;23548;51.196;6.838;2022-07-22T02:16:30;22.25;;;13.85;;
37701;SDS011;23548;51.196;6.838;2022-07-22T02:18:56;17.98;;;13.35;;
37701;SDS011;23548;51.196;6.838;2022-07-22T02:21:22;22.40;;;12.55;;
37701;SDS011;23548;51.196;6.838;2022-07-22T02:23:49;18.48;;;12.02;;
37701;SDS011;23548;51.196;6.838;2022-07-22T02:26:15;16.60;;;12.27;;
37701;SDS011;23548;51.196;6.838;2022-07-22T02:28:41;22.25;;;13.25;;
37701;SDS011;23548;51.196;6.838;2022-07-22T02:31:07;17.67;;;12.98;;
37701;SDS011;23548;51.196;6.838;2022-07-22T02:33:32;21.13;;;13.55;;
37701;SDS011;23548;51.196;6.838;2022-07-22T02:35:58;21.88;;;13.20;;
37701;SDS011;23548;51.196;6.838;2022-07-22T02:38:24;20.98;;;13.80;;
37701;SDS011;23548;51.196;6.838;2022-07-22T02:40:49;17.73;;;13.20;;
37701;SDS011;23548;51.196;6.838;2022-07-22T02:43:15;19.92;;;13.30;;
37701;SDS011;23548;51.196;6.838;2022-07-22T02:45:41;19.90;;;13.60;;
37701;SDS011;23548;51.196;6.838;2022-07-22T02:48:07;22.83;;;14.73;;
37701;SDS011;23548;51.196;6.838;2022-07-22T02:50:32;20.58;;;12.90;;
37701;SDS011;23548;51.196;6.838;2022-07-22T02:52:58;21.33;;;12.93;;
37701;SDS011;23548;51.196;6.838;2022-07-22T02:55:24;21.48;;;14.25;;
37701;SDS011;23548;51.196;6.838;2022-07-22T02:57:50;19.58;;;13.30;;
37701;SDS011;23548;51.196;6.838;2022-07-22T03:00:16;18.45;;;11.90;;
37701;SDS011;23548;51.196;6.838;2022-07-22T03:02:42;17.05;;;12.00;;
37701;SDS011;23548;51.196;6.838;2022-07-22T03:05:08;19.83;;;11.13;;
37701;SDS011;23548;51.196;6.838;2022-07-22T03:07:34;18.27;;;10.95;;
37701;SDS011;23548;51.196;6.838;2022-07-22T03:10:00;18.38;;;11.40;;
37701;SDS011;23548;51.196;6.838;2022-07-22T03:12:26;16.98;;;11.45;;
37701;SDS011;23548;51.196;6.838;2022-07-22T03:14:52;16.38;;;10.10;;
37701;SDS011;23548;51.196;6.838;2022-07-22T03:17:18;15.48;;;10.40;;
37701;SDS011;23548;51.196;6.838;2022-07-22T03:19:44;17.63;;;11.95;;
37701;SDS011;23548;51.196;6.838;2022-07-22T03:22:09;15.48;;;11.43;;
37701;SDS011;23548;51.196;6.838;2022-07-22T03:24:35;15.77;;;11.63;;
37701;SDS011;23548;51.196;6.838;2022-07-22T03:27:01;18.77;;;13.77;;
37701;SDS011;23548;51.196;6.838;2022-07-22T03:29:26;19.52;;;13.57;;
37701;SDS011;23548;51.196;6.838;2022-07-22T03:31:52;22.00;;;14.55;;
37701;SDS011;23548;51.196;6.838;2022-07-22T03:34:18;21.88;;;15.52;;
37701;SDS011;23548;51.196;6.838;2022-07-22T03:36:44;21.23;;;14.95;;
37701;SDS011;23548;51.196;6.838;2022-07-22T03:39:09;24.23;;;15.38;;
37701;SDS011;23548;51.196;6.838;2022-07-22T03:41:35;23.48;;;15.13;;
37701;SDS011;23548;51.196;6.838;2022-07-22T03:44:01;20.23;;;15.00;;
37701;SDS011;23548;51.196;6.838;2022-07-22T03:46:26;21.20;;;15.07;;
37701;SDS011;23548;51.196;6.838;2022-07-22T03:48:52;18.42;;;14.43;;
37701;SDS011;23548;51.196;6.838;2022-07-22T03:51:18;27.75;;;14.68;;
37701;SDS011;23548;51.196;6.838;2022-07-22T03:53:43;22.85;;;15.13;;
37701;SDS011;23548;51.196;6.838;2022-07-22T03:56:09;25.48;;;14.27;;
37701;SDS011;23548;51.196;6.838;2022-07-22T03:58:36;24.58;;;14.18;;
37701;SDS011;23548;51.196;6.838;2022-07-22T04:01:02;20.27;;;14.23;;
37701;SDS011;23548;51.196;6.838;2022-07-22T04:03:28;21.10;;;14.88;;
37701;SDS011;23548;51.196;6.838;2022-07-22T04:05:53;24.05;;;15.50;;
37701;SDS011;23548;51.196;6.838;2022-07-22T04:08:19;26.98;;;16.40;;
37701;SDS011;23548;51.196;6.838;2022-07-22T04:10:45;25.25;;;17.20;;
37701;SDS011;23548;51.196;6.838;2022-07-22T04:13:11;26.95;;;18.45;;
37701;SDS011;23548;51.196;6.838;2022-07-22T04:15:37;29.60;;;18.98;;
37701;SDS011;23548;51.196;6.838;2022-07-22T04:18:03;30.05;;;19.67;;
37701;SDS011;23548;51.196;6.838;2022-07-22T04:20:29;25.67;;;17.58;;
37701;SDS011;23548;51.196;6.838;2022-07-22T04:22:54;33.25;;;21.15;;
37701;SDS011;23548;51.196;6.838;2022-07-22T04:25:20;32.30;;;21.40;;
37701;SDS011;23548;51.196;6.838;2022-07-22T04:27:46;34.63;;;21.33;;
37701;SDS011;23548;51.196;6.838;2022-07-22T04:30:12;30.75;;;18.65;;
37701;SDS011;23548;51.196;6.838;2022-07-22T04:32:37;30.23;;;20.13;;
37701;SDS011;23548;51.196;6.838;2022-07-22T04:35:03;23.00;;;15.05;;
37701;SDS011;23548;51.196;6.838;2022-07-22T04:37:30;17.67;;;11.35;;
37701;SDS011;23548;51.196;6.838;2022-07-22T04:39:55;13.55;;;7.18;;
37701;SDS011;23548;51.196;6.838;2022-07-22T04:42:21;13.60;;;7.07;;
37701;SDS011;23548;51.196;6.838;2022-07-22T04:44:47;12.30;;;6.28;;
37701;SDS011;23548;51.196;6.838;2022-07-22T04:47:13;12.07;;;7.00;;
37701;SDS011;23548;51.196;6.838;2022-07-22T04:49:38;12.18;;;6.45;;
37701;SDS011;23548;51.196;6.838;2022-07-22T04:52:04;13.00;;;7.20;;
37701;SDS011;23548;51.196;6.838;2022-07-22T04:54:30;17.02;;;7.10;;
37701;SDS011;23548;51.196;6.838;2022-07-22T04:56:56;13.52;;;6.93;;
37701;SDS011;23548;51.196;6.838;2022-07-22T04:59:22;12.38;;;6.18;;
37701;SDS011;23548;51.196;6.838;2022-07-22T05:01:48;10.48;;;6.47;;
37701;SDS011;23548;51.196;6.838;2022-07-22T05:04:13;13.45;;;6.40;;
37701;SDS011;23548;51.196;6.838;2022-07-22T05:06:39;14.25;;;6.53;;
37701;SDS011;23548;51.196;6.838;2022-07-22T05:09:05;12.07;;;6.20;;
37701;SDS011;23548;51.196;6.838;2022-07-22T05:11:31;12.73;;;6.18;;
37701;SDS011;23548;51.196;6.838;2022-07-22T05:13:57;11.25;;;5.57;;
37701;SDS011;23548;51.196;6.838;2022-07-22T05:16:23;10.30;;;5.15;;
37701;SDS011;23548;51.196;6.838;2022-07-22T05:18:48;10.38;;;4.97;;
37701;SDS011;23548;51.196;6.838;2022-07-22T05:21:14;11.30;;;4.63;;
37701;SDS011;23548;51.196;6.838;2022-07-22T05:23:40;14.02;;;5.43;;
37701;SDS011;23548;51.196;6.838;2022-07-22T05:26:06;15.70;;;5.45;;
37701;SDS011;23548;51.196;6.838;2022-07-22T05:28:32;8.85;;;4.45;;
37701;SDS011;23548;51.196;6.838;2022-07-22T05:30:57;9.50;;;4.55;;
37701;SDS011;23548;51.196;6.838;2022-07-22T05:33:23;11.02;;;4.78;;
37701;SDS011;23548;51.196;6.838;2022-07-22T05:35:49;11.25;;;4.68;;
37701;SDS011;23548;51.196;6.838;2022-07-22T05:38:15;10.63;;;4.20;;
37701;SDS011;23548;51.196;6.838;2022-07-22T05:40:41;8.93;;;4.63;;
37701;SDS011;23548;51.196;6.838;2022-07-22T05:43:07;11.15;;;4.30;;
37701;SDS011;23548;51.196;6.838;2022-07-22T05:45:32;8.75;;;4.10;;
37701;SDS011;23548;51.196;6.838;2022-07-22T05:47:58;13.32;;;5.32;;
37701;SDS011;23548;51.196;6.838;2022-07-22T05:50:26;8.77;;;4.47;;
37701;SDS011;23548;51.196;6.838;2022-07-22T05:52:52;8.68;;;3.90;;
37701;SDS011;23548;51.196;6.838;2022-07-22T05:55:17;13.32;;;4.03;;
37701;SDS011;23548;51.196;6.838;2022-07-22T05:57:43;11.65;;;4.80;;
37701;SDS011;23548;51.196;6.838;2022-07-22T06:00:09;6.38;;;3.85;;
37701;SDS011;23548;51.196;6.838;2022-07-22T06:02:35;13.57;;;4.38;;
37701;SDS011;23548;51.196;6.838;2022-07-22T06:05:01;12.75;;;4.65;;
37701;SDS011;23548;51.196;6.838;2022-07-22T06:07:27;12.55;;;5.13;;
37701;SDS011;23548;51.196;6.838;2022-07-22T06:09:53;10.55;;;4.40;;
37701;SDS011;23548;51.196;6.838;2022-07-22T06:12:19;11.65;;;4.22;;
37701;SDS011;23548;51.196;6.838;2022-07-22T06:14:45;10.75;;;4.40;;
37701;SDS011;23548;51.196;6.838;2022-07-22T06:17:11;9.00;;;4.45;;
37701;SDS011;23548;51.196;6.838;2022-07-22T06:19:38;8.70;;;4.47;;
37701;SDS011;23548;51.196;6.838;2022-07-22T06:22:03;12.82;;;4.50;;
37701;SDS011;23548;51.196;6.838;2022-07-22T06:24:29;10.43;;;4.68;;
37701;SDS011;23548;51.196;6.838;2022-07-22T06:26:55;13.32;;;4.47;;
37701;SDS011;23548;51.196;6.838;2022-07-22T06:29:21;9.77;;;4.60;;
37701;SDS011;23548;51.196;6.838;2022-07-22T06:31:47;12.77;;;7.13;;
37701;SDS011;23548;51.196;6.838;2022-07-22T06:34:13;9.13;;;5.00;;
37701;SDS011;23548;51.196;6.838;2022-07-22T06:36:39;10.50;;;5.07;;
37701;SDS011;23548;51.196;6.838;2022-07-22T06:39:04;9.13;;;5.18;;
37701;SDS011;23548;51.196;6.838;2022-07-22T06:41:30;12.00;;;5.18;;
37701;SDS011;23548;51.196;6.838;2022-07-22T06:43:56;7.88;;;5.13;;
37701;SDS011;23548;51.196;6.838;2022-07-22T06:46:21;9.48;;;5.10;;
37701;SDS011;23548;51.196;6.838;2022-07-22T06:48:47;10.95;;;4.93;;
37701;SDS011;23548;51.196;6.838;2022-07-22T06:51:13;8.93;;;4.85;;
37701;SDS011;23548;51.196;6.838;2022-07-22T06:53:40;13.40;;;5.13;;
37701;SDS011;23548;51.196;6.838;2022-07-22T06:56:06;8.77;;;4.32;;
37701;SDS011;23548;51.196;6.838;2022-07-22T06:58:32;11.32;;;4.88;;
37701;SDS011;23548;51.196;6.838;2022-07-22T07:00:58;9.30;;;4.32;;
37701;SDS011;23548;51.196;6.838;2022-07-22T07:03:24;12.00;;;4.60;;
37701;SDS011;23548;51.196;6.838;2022-07-22T07:05:50;9.65;;;4.65;;
37701;SDS011;23548;51.196;6.838;2022-07-22T07:08:17;7.38;;;4.40;;
37701;SDS011;23548;51.196;6.838;2022-07-22T07:10:43;11.90;;;4.38;;
37701;SDS011;23548;51.196;6.838;2022-07-22T07:13:08;15.38;;;4.50;;
37701;SDS011;23548;51.196;6.838;2022-07-22T07:15:34;10.27;;;4.72;;
37701;SDS011;23548;51.196;6.838;2022-07-22T07:18:03;10.77;;;4.20;;
37701;SDS011;23548;51.196;6.838;2022-07-22T07:20:29;11.57;;;4.53;;
37701;SDS011;23548;51.196;6.838;2022-07-22T07:22:55;9.93;;;3.80;;
37701;SDS011;23548;51.196;6.838;2022-07-22T07:25:21;8.75;;;3.80;;
37701;SDS011;23548;51.196;6.838;2022-07-22T07:27:46;8.43;;;3.92;;
37701;SDS011;23548;51.196;6.838;2022-07-22T07:30:12;9.48;;;3.50;;
37701;SDS011;23548;51.196;6.838;2022-07-22T07:32:38;7.65;;;3.67;;
37701;SDS011;23548;51.196;6.838;2022-07-22T07:35:05;8.82;;;4.25;;
37701;SDS011;23548;51.196;6.838;2022-07-22T07:37:32;11.18;;;4.22;;
37701;SDS011;23548;51.196;6.838;2022-07-22T07:39:58;11.30;;;4.13;;
37701;SDS011;23548;51.196;6.838;2022-07-22T07:42:24;10.32;;;4.13;;
37701;SDS011;23548;51.196;6.838;2022-07-22T07:44:51;11.10;;;4.88;;
37701;SDS011;23548;51.196;6.838;2022-07-22T07:47:17;13.60;;;5.22;;
37701;SDS011;23548;51.196;6.838;2022-07-22T07:49:45;9.82;;;5.30;;
37701;SDS011;23548;51.196;6.838;2022-07-22T07:52:12;13.52;;;5.47;;
37701;SDS011;23548;51.196;6.838;2022-07-22T07:54:39;16.85;;;5.70;;
37701;SDS011;23548;51.196;6.838;2022-07-22T07:57:06;8.25;;;5.25;;
37701;SDS011;23548;51.196;6.838;2022-07-22T07:59:32;10.82;;;5.80;;
37701;SDS011;23548;51.196;6.838;2022-07-22T08:01:58;12.65;;;6.10;;
37701;SDS011;23548;51.196;6.838;2022-07-22T08:04:24;13.95;;;6.35;;
37701;SDS011;23548;51.196;6.838;2022-07-22T08:06:50;12.80;;;6.88;;
37701;SDS011;23548;51.196;6.838;2022-07-22T08:09:16;14.40;;;6.30;;
37701;SDS011;23548;51.196;6.838;2022-07-22T08:11:42;10.30;;;5.75;;
37701;SDS011;23548;51.196;6.838;2022-07-22T08:14:08;11.38;;;6.13;;
37701;SDS011;23548;51.196;6.838;2022-07-22T08:16:33;10.10;;;6.63;;
37701;SDS011;23548;51.196;6.838;2022-07-22T08:18:59;9.93;;;6.25;;
37701;SDS011;23548;51.196;6.838;2022-07-22T08:21:25;11.80;;;5.80;;
37701;SDS011;23548;51.196;6.838;2022-07-22T08:23:51;13.07;;;6.82;;
37701;SDS011;23548;51.196;6.838;2022-07-22T08:26:17;12.02;;;5.50;;
37701;SDS011;23548;51.196;6.838;2022-07-22T08:28:43;11.65;;;6.20;;
37701;SDS011;23548;51.196;6.838;2022-07-22T08:31:09;12.95;;;5.47;;
37701;SDS011;23548;51.196;6.838;2022-07-22T08:33:35;9.90;;;5.63;;
37701;SDS011;23548;51.196;6.838;2022-07-22T08:36:01;12.65;;;5.93;;
37701;SDS011;23548;51.196;6.838;2022-07-22T08:38:27;10.68;;;6.22;;
37701;SDS011;23548;51.196;6.838;2022-07-22T08:40:54;11.50;;;6.82;;
37701;SDS011;23548;51.196;6.838;2022-07-22T08:43:21;10.93;;;6.70;;
37701;SDS011;23548;51.196;6.838;2022-07-22T08:45:47;14.35;;;7.78;;
37701;SDS011;23548;51.196;6.838;2022-07-22T08:48:15;13.73;;;7.80;;
37701;SDS011;23548;51.196;6.838;2022-07-22T08:50:41;13.52;;;8.00;;
37701;SDS011;23548;51.196;6.838;2022-07-22T08:53:11;14.10;;;8.00;;
37701;SDS011;23548;51.196;6.838;2022-07-22T08:55:41;13.52;;;8.23;;
37701;SDS011;23548;51.196;6.838;2022-07-22T08:58:11;14.80;;;8.20;;
37701;SDS011;23548;51.196;6.838;2022-07-22T09:00:37;16.30;;;8.23;;
37701;SDS011;23548;51.196;6.838;2022-07-22T09:03:25;12.18;;;7.65;;
37701;SDS011;23548;51.196;6.838;2022-07-22T09:05:53;15.73;;;8.70;;
37701;SDS011;23548;51.196;6.838;2022-07-22T09:08:20;14.32;;;9.55;;
37701;SDS011;23548;51.196;6.838;2022-07-22T09:10:46;14.18;;;8.57;;
37701;SDS011;23548;51.196;6.838;2022-07-22T09:13:13;16.52;;;8.27;;
37701;SDS011;23548;51.196;6.838;2022-07-22T09:15:48;13.20;;;8.25;;
37701;SDS011;23548;51.196;6.838;2022-07-22T09:18:15;12.27;;;8.05;;
37701;SDS011;23548;51.196;6.838;2022-07-22T09:20:41;11.10;;;7.88;;
37701;SDS011;23548;51.196;6.838;2022-07-22T09:23:15;12.77;;;8.15;;
37701;SDS011;23548;51.196;6.838;2022-07-22T09:25:49;16.08;;;8.57;;
37701;SDS011;23548;51.196;6.838;2022-07-22T09:28:16;13.52;;;8.43;;
37701;SDS011;23548;51.196;6.838;2022-07-22T09:30:47;13.25;;;8.35;;
37701;SDS011;23548;51.196;6.838;2022-07-22T09:33:16;18.25;;;7.70;;
37701;SDS011;23548;51.196;6.838;2022-07-22T09:35:42;11.88;;;7.80;;
37701;SDS011;23548;51.196;6.838;2022-07-22T09:38:10;13.98;;;7.95;;
37701;SDS011;23548;51.196;6.838;2022-07-22T09:40:46;17.67;;;8.75;;
37701;SDS011;23548;51.196;6.838;2022-07-22T09:43:14;13.55;;;7.63;;
37701;SDS011;23548;51.196;6.838;2022-07-22T09:45:48;12.45;;;8.18;;
37701;SDS011;23548;51.196;6.838;2022-07-22T09:48:24;14.80;;;7.63;;
37701;SDS011;23548;51.196;6.838;2022-07-22T09:50:51;11.93;;;7.82;;
37701;SDS011;23548;51.196;6.838;2022-07-22T09:53:19;12.93;;;7.72;;
37701;SDS011;23548;51.196;6.838;2022-07-22T09:55:47;17.60;;;9.00;;
37701;SDS011;23548;51.196;6.838;2022-07-22T09:58:13;15.57;;;9.13;;
37701;SDS011;23548;51.196;6.838;2022-07-22T10:00:39;17.17;;;8.52;;
37701;SDS011;23548;51.196;6.838;2022-07-22T10:03:07;16.25;;;9.13;;
37701;SDS011;23548;51.196;6.838;2022-07-22T10:05:40;16.08;;;9.05;;
37701;SDS011;23548;51.196;6.838;2022-07-22T10:08:07;14.82;;;8.98;;
37701;SDS011;23548;51.196;6.838;2022-07-22T10:10:34;15.52;;;9.10;;
37701;SDS011;23548;51.196;6.838;2022-07-22T10:13:03;12.52;;;8.85;;
37701;SDS011;23548;51.196;6.838;2022-07-22T10:15:30;15.43;;;9.73;;
37701;SDS011;23548;51.196;6.838;2022-07-22T10:17:59;15.13;;;9.90;;
37701;SDS011;23548;51.196;6.838;2022-07-22T10:20:27;15.82;;;10.13;;
37701;SDS011;23548;51.196;6.838;2022-07-22T10:22:58;17.13;;;10.70;;
37701;SDS011;23548;51.196;6.838;2022-07-22T10:25:27;18.02;;;10.70;;
37701;SDS011;23548;51.196;6.838;2022-07-22T10:28:02;14.57;;;10.57;;
37701;SDS011;23548;51.196;6.838;2022-07-22T10:30:36;17.65;;;10.02;;
37701;SDS011;23548;51.196;6.838;2022-07-22T10:35:58;23.13;;;11.65;;
37701;SDS011;23548;51.196;6.838;2022-07-22T10:38:25;17.65;;;11.55;;
37701;SDS011;23548;51.196;6.838;2022-07-22T10:40:56;19.65;;;11.68;;
37701;SDS011;23548;51.196;6.838;2022-07-22T10:43:30;19.25;;;12.60;;
37701;SDS011;23548;51.196;6.838;2022-07-22T10:46:10;19.85;;;11.95;;
37701;SDS011;23548;51.196;6.838;2022-07-22T10:51:06;22.45;;;13.20;;
37701;SDS011;23548;51.196;6.838;2022-07-22T10:59:16;20.92;;;13.35;;
37701;SDS011;23548;51.196;6.838;2022-07-22T11:01:42;19.30;;;12.40;;
37701;SDS011;23548;51.196;6.838;2022-07-22T11:04:20;19.13;;;11.90;;
37701;SDS011;23548;51.196;6.838;2022-07-22T11:06:49;19.42;;;13.00;;
37701;SDS011;23548;51.196;6.838;2022-07-22T11:09:17;19.63;;;14.45;;
37701;SDS011;23548;51.196;6.838;2022-07-22T11:14:11;23.70;;;15.82;;
37701;SDS011;23548;51.196;6.838;2022-07-22T11:16:38;22.23;;;15.23;;
37701;SDS011;23548;51.196;6.838;2022-07-22T11:19:04;30.15;;;16.75;;
37701;SDS011;23548;51.196;6.838;2022-07-22T11:21:31;24.38;;;16.15;;
37701;SDS011;23548;51.196;6.838;2022-07-22T11:23:59;25.75;;;15.75;;
37701;SDS011;23548;51.196;6.838;2022-07-22T11:26:40;25.80;;;16.73;;
37701;SDS011;23548;51.196;6.838;2022-07-22T11:29:12;23.35;;;16.27;;
37701;SDS011;23548;51.196;6.838;2022-07-22T11:31:41;22.70;;;16.75;;
37701;SDS011;23548;51.196;6.838;2022-07-22T11:34:09;24.13;;;18.00;;
37701;SDS011;23548;51.196;6.838;2022-07-22T11:36:37;22.60;;;16.98;;
37701;SDS011;23548;51.196;6.838;2022-07-22T11:39:08;23.98;;;17.45;;
37701;SDS011;23548;51.196;6.838;2022-07-22T11:41:35;25.15;;;17.90;;
37701;SDS011;23548;51.196;6.838;2022-07-22T11:44:02;26.73;;;18.48;;
37701;SDS011;23548;51.196;6.838;2022-07-22T11:46:33;28.40;;;18.30;;
37701;SDS011;23548;51.196;6.838;2022-07-22T11:49:09;27.98;;;17.63;;
37701;SDS011;23548;51.196;6.838;2022-07-22T11:51:38;24.27;;;18.38;;
37701;SDS011;23548;51.196;6.838;2022-07-22T11:54:04;26.77;;;18.08;;
37701;SDS011;23548;51.196;6.838;2022-07-22T11:56:31;23.05;;;17.58;;
37701;SDS011;23548;51.196;6.838;2022-07-22T11:58:57;22.05;;;17.15;;
37701;SDS011;23548;51.196;6.838;2022-07-22T12:01:28;21.90;;;16.40;;
37701;SDS011;23548;51.196;6.838;2022-07-22T12:04:04;21.52;;;16.02;;
37701;SDS011;23548;51.196;6.838;2022-07-22T12:06:33;25.02;;;16.98;;
37701;SDS011;23548;51.196;6.838;2022-07-22T12:12:03;23.02;;;16.08;;
37701;SDS011;23548;51.196;6.838;2022-07-22T12:14:32;21.85;;;17.00;;
37701;SDS011;23548;51.196;6.838;2022-07-22T12:17:03;22.92;;;16.58;;
37701;SDS011;23548;51.196;6.838;2022-07-22T12:19:29;21.58;;;16.05;;
37701;SDS011;23548;51.196;6.838;2022-07-22T12:27:02;25.15;;;16.33;;
37701;SDS011;23548;51.196;6.838;2022-07-22T12:32:05;22.65;;;16.30;;
37701;SDS011;23548;51.196;6.838;2022-07-22T12:34:35;21.15;;;16.13;;
37701;SDS011;23548;51.196;6.838;2022-07-22T12:37:17;24.35;;;16.50;;
37701;SDS011;23548;51.196;6.838;2022-07-22T12:42:36;24.85;;;17.15;;
37701;SDS011;23548;51.196;6.838;2022-07-22T12:52:57;22.85;;;16.30;;
37701;SDS011;23548;51.196;6.838;2022-07-22T12:55:23;24.50;;;16.73;;
37701;SDS011;23548;51.196;6.838;2022-07-22T12:57:50;24.60;;;16.95;;
37701;SDS011;23548;51.196;6.838;2022-07-22T13:00:23;23.75;;;17.58;;
37701;SDS011;23548;51.196;6.838;2022-07-22T13:02:55;23.80;;;17.55;;
37701;SDS011;23548;51.196;6.838;2022-07-22T13:05:22;23.83;;;17.33;;
37701;SDS011;23548;51.196;6.838;2022-07-22T13:07:49;25.55;;;18.70;;
37701;SDS011;23548;51.196;6.838;2022-07-22T13:10:18;22.35;;;16.40;;
37701;SDS011;23548;51.196;6.838;2022-07-22T13:12:45;23.40;;;16.73;;
37701;SDS011;23548;51.196;6.838;2022-07-22T13:15:11;28.08;;;17.30;;
37701;SDS011;23548;51.196;6.838;2022-07-22T13:17:38;26.70;;;17.98;;
37701;SDS011;23548;51.196;6.838;2022-07-22T13:20:04;21.30;;;16.15;;
37701;SDS011;23548;51.196;6.838;2022-07-22T13:22:31;20.98;;;15.60;;
37701;SDS011;23548;51.196;6.838;2022-07-22T13:24:57;22.63;;;14.80;;
37701;SDS011;23548;51.196;6.838;2022-07-22T13:27:23;19.92;;;15.35;;
37701;SDS011;23548;51.196;6.838;2022-07-22T13:29:49;22.80;;;15.43;;
37701;SDS011;23548;51.196;6.838;2022-07-22T13:32:15;26.13;;;16.55;;
37701;SDS011;23548;51.196;6.838;2022-07-22T13:34:41;20.75;;;15.40;;
37701;SDS011;23548;51.196;6.838;2022-07-22T13:37:07;21.27;;;15.75;;
37701;SDS011;23548;51.196;6.838;2022-07-22T13:39:32;25.75;;;17.60;;
37701;SDS011;23548;51.196;6.838;2022-07-22T13:41:58;20.48;;;16.00;;
37701;SDS011;23548;51.196;6.838;2022-07-22T13:44:24;20.75;;;16.35;;
37701;SDS011;23548;51.196;6.838;2022-07-22T13:46:50;24.33;;;16.80;;
37701;SDS011;23548;51.196;6.838;2022-07-22T13:49:16;20.02;;;15.45;;
37701;SDS011;23548;51.196;6.838;2022-07-22T13:51:41;21.17;;;16.38;;
37701;SDS011;23548;51.196;6.838;2022-07-22T13:54:07;22.92;;;17.13;;
37701;SDS011;23548;51.196;6.838;2022-07-22T13:56:33;20.80;;;15.45;;
37701;SDS011;23548;51.196;6.838;2022-07-22T13:58:59;20.40;;;16.27;;
37701;SDS011;23548;51.196;6.838;2022-07-22T14:01:26;21.77;;;17.08;;
37701;SDS011;23548;51.196;6.838;2022-07-22T14:03:52;23.23;;;17.17;;
37701;SDS011;23548;51.196;6.838;2022-07-22T14:06:17;22.30;;;17.58;;
37701;SDS011;23548;51.196;6.838;2022-07-22T14:08:44;25.15;;;19.77;;
37701;SDS011;23548;51.196;6.838;2022-07-22T14:11:10;25.98;;;20.45;;
37701;SDS011;23548;51.196;6.838;2022-07-22T14:13:36;26.35;;;20.55;;
37701;SDS011;23548;51.196;6.838;2022-07-22T14:16:02;24.73;;;19.80;;
37701;SDS011;23548;51.196;6.838;2022-07-22T14:18:47;27.65;;;20.65;;
37701;SDS011;23548;51.196;6.838;2022-07-22T14:21:13;24.10;;;19.45;;
37701;SDS011;23548;51.196;6.838;2022-07-22T14:23:39;22.45;;;19.50;;
37701;SDS011;23548;51.196;6.838;2022-07-22T14:26:05;23.13;;;18.73;;
37701;SDS011;23548;51.196;6.838;2022-07-22T14:28:30;24.77;;;20.15;;
37701;SDS011;23548;51.196;6.838;2022-07-22T14:30:56;26.13;;;21.13;;
37701;SDS011;23548;51.196;6.838;2022-07-22T14:33:22;26.30;;;20.05;;
37701;SDS011;23548;51.196;6.838;2022-07-22T14:35:48;26.45;;;20.63;;
37701;SDS011;23548;51.196;6.838;2022-07-22T14:38:14;23.88;;;19.92;;
37701;SDS011;23548;51.196;6.838;2022-07-22T14:40:40;22.77;;;19.02;;
37701;SDS011;23548;51.196;6.838;2022-07-22T14:43:06;24.17;;;17.77;;
37701;SDS011;23548;51.196;6.838;2022-07-22T14:45:32;24.35;;;18.85;;
37701;SDS011;23548;51.196;6.838;2022-07-22T14:47:58;22.10;;;16.90;;
37701;SDS011;23548;51.196;6.838;2022-07-22T14:50:23;22.35;;;17.73;;
37701;SDS011;23548;51.196;6.838;2022-07-22T14:52:49;20.90;;;17.92;;
37701;SDS011;23548;51.196;6.838;2022-07-22T14:55:15;22.27;;;18.10;;
37701;SDS011;23548;51.196;6.838;2022-07-22T14:57:40;26.02;;;20.52;;
37701;SDS011;23548;51.196;6.838;2022-07-22T15:00:06;25.40;;;18.77;;
37701;SDS011;23548;51.196;6.838;2022-07-22T15:02:33;23.08;;;18.15;;
37701;SDS011;23548;51.196;6.838;2022-07-22T15:04:59;26.23;;;19.42;;